sensor_id;sensor_type;location;lat;lon;timestamp;pressure;altitude;pressure_sealevel;temperature;humidity
73934;BME280;62286;50.528;18.284;2022-12-29T00:02:09;98984.50;;;18.50;49.85
73934;BME280;62286;50.528;18.284;2022-12-29T00:04:34;98992.84;;;18.50;50.15
73934;BME280;62286;50.528;18.284;2022-12-29T00:06:59;98989.69;;;18.48;50.13
73934;BME280;62286;50.528;18.284;2022-12-29T00:09:25;98978.19;;;18.46;50.12
73934;BME280;62286;50.528;18.284;2022-12-29T00:11:50;98990.47;;;18.45;49.84
73934;BME280;62286;50.528;18.284;2022-12-29T00:14:15;98983.75;;;18.46;49.79
73934;BME280;62286;50.528;18.284;2022-12-29T00:16:41;98983.34;;;18.47;49.80
73934;BME280;62286;50.528;18.284;2022-12-29T00:19:06;98990.06;;;18.50;49.59
73934;BME280;62286;50.528;18.284;2022-12-29T00:21:32;98981.72;;;18.50;49.37
73934;BME280;62286;50.528;18.284;2022-12-29T00:23:57;98971.41;;;18.50;49.21
73934;BME280;62286;50.528;18.284;2022-12-29T00:26:22;98986.88;;;18.51;49.09
73934;BME280;62286;50.528;18.284;2022-12-29T00:28:47;98983.31;;;18.51;48.90
73934;BME280;62286;50.528;18.284;2022-12-29T00:31:12;98975.38;;;18.53;49.04
73934;BME280;62286;50.528;18.284;2022-12-29T00:33:37;98976.97;;;18.54;48.73
73934;BME280;62286;50.528;18.284;2022-12-29T00:36:13;98976.97;;;18.54;48.77
73934;BME280;62286;50.528;18.284;2022-12-29T00:38:42;98990.44;;;18.56;48.45
73934;BME280;62286;50.528;18.284;2022-12-29T00:41:09;98975.78;;;18.55;48.39
73934;BME280;62286;50.528;18.284;2022-12-29T00:43:34;98978.94;;;18.57;48.32
73934;BME280;62286;50.528;18.284;2022-12-29T00:45:59;98974.94;;;18.58;48.13
73934;BME280;62286;50.528;18.284;2022-12-29T00:48:24;98976.16;;;18.61;48.17
73934;BME280;62286;50.528;18.284;2022-12-29T00:50:50;98971.38;;;18.61;48.16
73934;BME280;62286;50.528;18.284;2022-12-29T00:53:20;98975.75;;;18.62;48.02
73934;BME280;62286;50.528;18.284;2022-12-29T00:55:45;98972.16;;;18.65;47.66
73934;BME280;62286;50.528;18.284;2022-12-29T00:58:10;98978.50;;;18.66;47.65
73934;BME280;62286;50.528;18.284;2022-12-29T01:00:35;98967.41;;;18.66;47.69
73934;BME280;62286;50.528;18.284;2022-12-29T01:03:00;98945.59;;;18.68;47.69
73934;BME280;62286;50.528;18.284;2022-12-29T01:05:25;98939.66;;;18.69;47.33
73934;BME280;62286;50.528;18.284;2022-12-29T01:07:50;98934.47;;;18.71;47.45
73934;BME280;62286;50.528;18.284;2022-12-29T01:10:15;98921.00;;;18.73;47.07
73934;BME280;62286;50.528;18.284;2022-12-29T01:12:41;98910.69;;;18.74;46.94
73934;BME280;62286;50.528;18.284;2022-12-29T01:15:07;98917.41;;;18.76;46.86
73934;BME280;62286;50.528;18.284;2022-12-29T01:17:32;98907.06;;;18.77;46.62
73934;BME280;62286;50.528;18.284;2022-12-29T01:19:57;98906.28;;;18.80;46.61
73934;BME280;62286;50.528;18.284;2022-12-29T01:22:23;98916.97;;;18.82;46.53
73934;BME280;62286;50.528;18.284;2022-12-29T01:24:48;98922.91;;;18.84;46.64
73934;BME280;62286;50.528;18.284;2022-12-29T01:27:13;98941.13;;;18.85;46.11
73934;BME280;62286;50.528;18.284;2022-12-29T01:29:39;98939.94;;;18.86;46.17
73934;BME280;62286;50.528;18.284;2022-12-29T01:32:04;98952.66;;;18.87;45.83
73934;BME280;62286;50.528;18.284;2022-12-29T01:34:29;98949.47;;;18.88;45.57
73934;BME280;62286;50.528;18.284;2022-12-29T01:36:54;98951.03;;;18.89;45.66
73934;BME280;62286;50.528;18.284;2022-12-29T01:39:19;98944.28;;;18.90;45.61
73934;BME280;62286;50.528;18.284;2022-12-29T01:41:44;98938.31;;;18.92;45.61
73934;BME280;62286;50.528;18.284;2022-12-29T01:44:56;98939.91;;;18.93;45.48
73934;BME280;62286;50.528;18.284;2022-12-29T01:46:55;98939.09;;;18.96;45.50
73934;BME280;62286;50.528;18.284;2022-12-29T01:49:24;98931.56;;;18.96;45.06
73934;BME280;62286;50.528;18.284;2022-12-29T01:52:00;98936.69;;;18.98;45.00
73934;BME280;62286;50.528;18.284;2022-12-29T01:56:58;98936.69;;;18.98;44.79
73934;BME280;62286;50.528;18.284;2022-12-29T01:59:26;98936.69;;;18.98;44.51
73934;BME280;62286;50.528;18.284;2022-12-29T02:01:52;98927.16;;;18.99;44.56
73934;BME280;62286;50.528;18.284;2022-12-29T02:04:17;98915.25;;;18.98;44.54
73934;BME280;62286;50.528;18.284;2022-12-29T02:06:48;98922.81;;;18.98;44.45
73934;BME280;62286;50.528;18.284;2022-12-29T02:09:16;98927.16;;;18.99;44.22
73934;BME280;62286;50.528;18.284;2022-12-29T02:11:41;98916.06;;;18.99;44.17
73934;BME280;62286;50.528;18.284;2022-12-29T02:14:12;98909.31;;;19.00;44.14
73934;BME280;62286;50.528;18.284;2022-12-29T02:19:39;98904.13;;;19.02;43.76
73934;BME280;62286;50.528;18.284;2022-12-29T02:22:12;98901.38;;;19.02;43.61
73934;BME280;62286;50.528;18.284;2022-12-29T02:45:08;98836.59;;;19.12;42.75
73934;BME280;62286;50.528;18.284;2022-12-29T02:50:05;98826.28;;;19.13;42.34
73934;BME280;62286;50.528;18.284;2022-12-29T02:52:34;98810.78;;;19.15;42.28
73934;BME280;62286;50.528;18.284;2022-12-29T02:55:00;98828.22;;;19.16;42.30
73934;BME280;62286;50.528;18.284;2022-12-29T03:00:12;98827.81;;;19.17;42.21
73934;BME280;62286;50.528;18.284;2022-12-29T03:15:28;98842.44;;;19.25;41.64
73934;BME280;62286;50.528;18.284;2022-12-29T03:18:05;98834.88;;;19.25;41.65
73934;BME280;62286;50.528;18.284;2022-12-29T03:20:33;98824.19;;;19.24;41.53
73934;BME280;62286;50.528;18.284;2022-12-29T03:23:01;98839.66;;;19.25;41.50
73934;BME280;62286;50.528;18.284;2022-12-29T03:25:29;98835.69;;;19.26;41.50
73934;BME280;62286;50.528;18.284;2022-12-29T03:27:56;98843.22;;;19.25;41.38
73934;BME280;62286;50.528;18.284;2022-12-29T03:30:22;98839.66;;;19.25;41.22
73934;BME280;62286;50.528;18.284;2022-12-29T03:33:07;98847.19;;;19.24;41.17
73934;BME280;62286;50.528;18.284;2022-12-29T03:35:34;98842.44;;;19.25;41.16
73934;BME280;62286;50.528;18.284;2022-12-29T03:41:03;98817.44;;;19.25;41.02
73934;BME280;62286;50.528;18.284;2022-12-29T03:43:29;98804.31;;;19.25;40.92
73934;BME280;62286;50.528;18.284;2022-12-29T03:45:54;98815.44;;;19.25;40.86
73934;BME280;62286;50.528;18.284;2022-12-29T03:48:19;98814.25;;;19.26;40.83
73934;BME280;62286;50.528;18.284;2022-12-29T03:50:45;98824.94;;;19.28;40.67
73934;BME280;62286;50.528;18.284;2022-12-29T03:53:10;98821.75;;;19.29;40.77
73934;BME280;62286;50.528;18.284;2022-12-29T03:55:35;98819.75;;;19.30;40.74
73934;BME280;62286;50.528;18.284;2022-12-29T03:58:00;98824.13;;;19.31;40.66
73934;BME280;62286;50.528;18.284;2022-12-29T04:00:25;98813.78;;;19.31;40.50
73934;BME280;62286;50.528;18.284;2022-12-29T04:02:50;98823.69;;;19.32;40.65
73934;BME280;62286;50.528;18.284;2022-12-29T04:05:15;98820.53;;;19.34;40.40
73934;BME280;62286;50.528;18.284;2022-12-29T04:07:40;98828.44;;;19.36;40.34
73934;BME280;62286;50.528;18.284;2022-12-29T04:10:06;98819.31;;;19.35;40.31
73934;BME280;62286;50.528;18.284;2022-12-29T04:12:31;98818.13;;;19.36;40.19
73934;BME280;62286;50.528;18.284;2022-12-29T04:14:56;98804.59;;;19.38;40.19
73934;BME280;62286;50.528;18.284;2022-12-29T04:17:21;98798.25;;;19.38;40.21
73934;BME280;62286;50.528;18.284;2022-12-29T04:19:47;98791.47;;;19.39;39.98
73934;BME280;62286;50.528;18.284;2022-12-29T04:22:12;98799.44;;;19.40;39.98
73934;BME280;62286;50.528;18.284;2022-12-29T04:24:37;98797.44;;;19.41;39.98
73934;BME280;62286;50.528;18.284;2022-12-29T04:27:02;98806.56;;;19.41;39.94
73934;BME280;62286;50.528;18.284;2022-12-29T04:29:27;98806.13;;;19.43;39.85
73934;BME280;62286;50.528;18.284;2022-12-29T04:31:53;98810.50;;;19.44;39.77
73934;BME280;62286;50.528;18.284;2022-12-29T04:34:18;98819.63;;;19.44;39.78
73934;BME280;62286;50.528;18.284;2022-12-29T04:36:43;98812.84;;;19.45;39.71
73934;BME280;62286;50.528;18.284;2022-12-29T04:39:08;98814.47;;;19.46;39.66
73934;BME280;62286;50.528;18.284;2022-12-29T04:41:33;98812.47;;;19.47;39.50
73934;BME280;62286;50.528;18.284;2022-12-29T04:43:58;98820.81;;;19.47;39.46
73934;BME280;62286;50.528;18.284;2022-12-29T04:46:23;98821.19;;;19.45;39.49
73934;BME280;62286;50.528;18.284;2022-12-29T04:48:48;98826.75;;;19.45;39.53
73934;BME280;62286;50.528;18.284;2022-12-29T04:51:14;98829.53;;;19.45;39.44
73934;BME280;62286;50.528;18.284;2022-12-29T04:53:39;98820.00;;;19.46;39.54
73934;BME280;62286;50.528;18.284;2022-12-29T04:56:04;98816.41;;;19.46;39.40
73934;BME280;62286;50.528;18.284;2022-12-29T04:58:29;98810.88;;;19.46;39.41
73934;BME280;62286;50.528;18.284;2022-12-29T05:00:54;98796.97;;;19.46;39.17
73934;BME280;62286;50.528;18.284;2022-12-29T05:03:19;98786.66;;;19.46;39.24
73934;BME280;62286;50.528;18.284;2022-12-29T05:05:44;98783.06;;;19.46;39.23
73934;BME280;62286;50.528;18.284;2022-12-29T05:08:10;98788.25;;;19.47;39.02
73934;BME280;62286;50.528;18.284;2022-12-29T05:10:35;98782.25;;;19.49;39.01
73934;BME280;62286;50.528;18.284;2022-12-29T05:13:00;98787.81;;;19.49;38.94
73934;BME280;62286;50.528;18.284;2022-12-29T05:15:25;98778.28;;;19.50;38.86
73934;BME280;62286;50.528;18.284;2022-12-29T05:17:50;98770.72;;;19.50;39.01
73934;BME280;62286;50.528;18.284;2022-12-29T05:20:15;98779.06;;;19.50;39.01
73934;BME280;62286;50.528;18.284;2022-12-29T05:22:40;98782.63;;;19.51;38.87
73934;BME280;62286;50.528;18.284;2022-12-29T05:25:06;98767.16;;;19.50;38.77
73934;BME280;62286;50.528;18.284;2022-12-29T05:27:31;98776.28;;;19.50;38.88
73934;BME280;62286;50.528;18.284;2022-12-29T05:29:56;98786.19;;;19.51;38.88
73934;BME280;62286;50.528;18.284;2022-12-29T05:32:21;98766.34;;;19.53;38.79
73934;BME280;62286;50.528;18.284;2022-12-29T05:34:46;98786.97;;;19.52;38.82
73934;BME280;62286;50.528;18.284;2022-12-29T05:37:11;98785.78;;;19.53;38.81
73934;BME280;62286;50.528;18.284;2022-12-29T05:39:37;98778.63;;;19.52;38.72
73934;BME280;62286;50.528;18.284;2022-12-29T05:42:02;98784.97;;;19.52;38.53
73934;BME280;62286;50.528;18.284;2022-12-29T05:44:27;98782.59;;;19.54;38.50
73934;BME280;62286;50.528;18.284;2022-12-29T05:46:52;98797.28;;;19.55;38.55
73934;BME280;62286;50.528;18.284;2022-12-29T05:49:17;98773.84;;;19.56;38.46
73934;BME280;62286;50.528;18.284;2022-12-29T05:51:42;98764.72;;;19.55;38.46
73934;BME280;62286;50.528;18.284;2022-12-29T05:54:07;98761.50;;;19.57;38.31
73934;BME280;62286;50.528;18.284;2022-12-29T05:56:33;98769.47;;;19.58;38.44
73934;BME280;62286;50.528;18.284;2022-12-29T05:58:58;98773.03;;;19.59;38.39
73934;BME280;62286;50.528;18.284;2022-12-29T06:01:23;98776.63;;;19.59;38.28
73934;BME280;62286;50.528;18.284;2022-12-29T06:03:48;98777.41;;;19.60;38.37
73934;BME280;62286;50.528;18.284;2022-12-29T06:06:13;98783.34;;;19.62;38.23
73934;BME280;62286;50.528;18.284;2022-12-29T06:08:38;98780.56;;;19.62;38.22
73934;BME280;62286;50.528;18.284;2022-12-29T06:11:03;98782.13;;;19.63;38.22
73934;BME280;62286;50.528;18.284;2022-12-29T06:13:28;98805.94;;;19.64;38.13
73934;BME280;62286;50.528;18.284;2022-12-29T06:15:54;98779.34;;;19.63;38.00
73934;BME280;62286;50.528;18.284;2022-12-29T06:18:19;98774.56;;;19.64;38.20
73934;BME280;62286;50.528;18.284;2022-12-29T06:20:44;98763.44;;;19.64;38.02
73934;BME280;62286;50.528;18.284;2022-12-29T06:23:09;98751.91;;;19.65;38.06
73934;BME280;62286;50.528;18.284;2022-12-29T06:25:34;98752.69;;;19.66;37.82
73934;BME280;62286;50.528;18.284;2022-12-29T06:27:59;98740.78;;;19.65;37.84
73934;BME280;62286;50.528;18.284;2022-12-29T06:30:25;98739.59;;;19.66;37.89
73934;BME280;62286;50.528;18.284;2022-12-29T06:32:50;98744.34;;;19.66;37.79
73934;BME280;62286;50.528;18.284;2022-12-29T06:35:15;98745.16;;;19.66;37.74
73934;BME280;62286;50.528;18.284;2022-12-29T06:37:40;98747.94;;;19.66;37.63
73934;BME280;62286;50.528;18.284;2022-12-29T06:40:05;98759.06;;;19.66;37.67
73934;BME280;62286;50.528;18.284;2022-12-29T06:42:31;98768.59;;;19.65;37.60
73934;BME280;62286;50.528;18.284;2022-12-29T06:44:56;98765.03;;;19.65;37.64
73934;BME280;62286;50.528;18.284;2022-12-29T06:47:21;98753.50;;;19.66;37.53
73934;BME280;62286;50.528;18.284;2022-12-29T06:49:46;98766.19;;;19.67;37.66
73934;BME280;62286;50.528;18.284;2022-12-29T06:52:11;98765.41;;;19.67;37.55
73934;BME280;62286;50.528;18.284;2022-12-29T06:54:36;98768.19;;;19.67;37.48
73934;BME280;62286;50.528;18.284;2022-12-29T06:57:01;98771.75;;;19.67;37.61
73934;BME280;62286;50.528;18.284;2022-12-29T06:59:27;98776.13;;;19.68;37.36
73934;BME280;62286;50.528;18.284;2022-12-29T07:01:52;98777.69;;;19.69;37.46
73934;BME280;62286;50.528;18.284;2022-12-29T07:04:17;98788.38;;;19.71;37.35
73934;BME280;62286;50.528;18.284;2022-12-29T07:06:42;98786.38;;;19.71;37.40
73934;BME280;62286;50.528;18.284;2022-12-29T07:09:08;98780.81;;;19.71;37.24
73934;BME280;62286;50.528;18.284;2022-12-29T07:11:33;98772.88;;;19.73;37.19
73934;BME280;62286;50.528;18.284;2022-12-29T07:13:59;98774.44;;;19.74;37.13
73934;BME280;62286;50.528;18.284;2022-12-29T07:16:24;98772.47;;;19.75;37.19
73934;BME280;62286;50.528;18.284;2022-12-29T07:18:49;98771.25;;;19.76;37.12
73934;BME280;62286;50.528;18.284;2022-12-29T07:21:14;98778.38;;;19.77;37.19
73934;BME280;62286;50.528;18.284;2022-12-29T07:23:41;98766.84;;;19.78;37.25
73934;BME280;62286;50.528;18.284;2022-12-29T07:26:07;98757.72;;;19.78;37.13
73934;BME280;62286;50.528;18.284;2022-12-29T07:28:32;98749.75;;;19.80;37.06
73934;BME280;62286;50.528;18.284;2022-12-29T07:30:58;98748.56;;;19.81;37.02
73934;BME280;62286;50.528;18.284;2022-12-29T07:33:24;98741.00;;;19.81;36.97
73934;BME280;62286;50.528;18.284;2022-12-29T07:35:49;98748.56;;;19.81;36.90
73934;BME280;62286;50.528;18.284;2022-12-29T07:38:14;98749.34;;;19.81;37.09
73934;BME280;62286;50.528;18.284;2022-12-29T07:40:39;98750.53;;;19.80;36.90
73934;BME280;62286;50.528;18.284;2022-12-29T07:43:04;98752.53;;;19.80;36.97
73934;BME280;62286;50.528;18.284;2022-12-29T07:45:30;98750.94;;;19.79;36.79
73934;BME280;62286;50.528;18.284;2022-12-29T07:47:55;98758.09;;;19.80;36.89
73934;BME280;62286;50.528;18.284;2022-12-29T07:50:20;98762.06;;;19.79;36.82
73934;BME280;62286;50.528;18.284;2022-12-29T07:52:45;98762.06;;;19.79;36.89
73934;BME280;62286;50.528;18.284;2022-12-29T07:55:10;98783.50;;;19.82;36.77
73934;BME280;62286;50.528;18.284;2022-12-29T07:57:35;98787.47;;;19.81;36.83
73934;BME280;62286;50.528;18.284;2022-12-29T08:00:00;98789.06;;;19.82;36.59
73934;BME280;62286;50.528;18.284;2022-12-29T08:02:26;98792.63;;;19.82;36.57
73934;BME280;62286;50.528;18.284;2022-12-29T08:04:51;98791.41;;;19.83;36.76
73934;BME280;62286;50.528;18.284;2022-12-29T08:07:16;98784.28;;;19.82;36.83
73934;BME280;62286;50.528;18.284;2022-12-29T08:09:41;98779.50;;;19.83;36.65
73934;BME280;62286;50.528;18.284;2022-12-29T08:12:08;98791.41;;;19.83;36.47
73934;BME280;62286;50.528;18.284;2022-12-29T08:14:33;98777.50;;;19.83;36.58
73934;BME280;62286;50.528;18.284;2022-12-29T08:16:58;98786.22;;;19.85;36.50
73934;BME280;62286;50.528;18.284;2022-12-29T08:19:23;98781.44;;;19.86;36.61
73934;BME280;62286;50.528;18.284;2022-12-29T08:21:48;98788.59;;;19.87;36.54
73934;BME280;62286;50.528;18.284;2022-12-29T08:24:13;98783.81;;;19.88;36.33
73934;BME280;62286;50.528;18.284;2022-12-29T08:26:38;98790.53;;;19.90;36.48
73934;BME280;62286;50.528;18.284;2022-12-29T08:29:04;98785.75;;;19.91;36.45
73934;BME280;62286;50.528;18.284;2022-12-29T08:31:29;98782.19;;;19.90;36.21
73934;BME280;62286;50.528;18.284;2022-12-29T08:33:54;98795.69;;;19.92;36.24
73934;BME280;62286;50.528;18.284;2022-12-29T08:36:19;98804.81;;;19.92;36.27
73934;BME280;62286;50.528;18.284;2022-12-29T08:38:44;98808.00;;;19.91;36.34
73934;BME280;62286;50.528;18.284;2022-12-29T08:41:09;98814.34;;;19.91;36.21
73934;BME280;62286;50.528;18.284;2022-12-29T08:43:34;98810.78;;;19.91;35.98
73934;BME280;62286;50.528;18.284;2022-12-29T08:45:59;98806.81;;;19.92;36.04
73934;BME280;62286;50.528;18.284;2022-12-29T08:48:25;98797.25;;;19.93;35.95
73934;BME280;62286;50.528;18.284;2022-12-29T08:50:50;98800.03;;;19.93;35.95
73934;BME280;62286;50.528;18.284;2022-12-29T08:53:15;98810.75;;;19.94;35.99
73934;BME280;62286;50.528;18.284;2022-12-29T08:55:41;98810.34;;;19.96;35.85
73934;BME280;62286;50.528;18.284;2022-12-29T08:58:06;98811.53;;;19.95;35.98
73934;BME280;62286;50.528;18.284;2022-12-29T09:00:31;98811.13;;;19.96;35.97
73934;BME280;62286;50.528;18.284;2022-12-29T09:02:56;98816.25;;;19.98;35.86
73934;BME280;62286;50.528;18.284;2022-12-29T09:05:21;98812.28;;;19.99;35.80
73934;BME280;62286;50.528;18.284;2022-12-29T09:07:46;98807.50;;;19.99;35.86
73934;BME280;62286;50.528;18.284;2022-12-29T09:10:11;98815.44;;;20.01;35.94
73934;BME280;62286;50.528;18.284;2022-12-29T09:12:37;98810.66;;;20.01;35.85
73934;BME280;62286;50.528;18.284;2022-12-29T09:15:02;98813.03;;;20.03;35.80
73934;BME280;62286;50.528;18.284;2022-12-29T09:17:27;98808.25;;;20.03;35.80
73934;BME280;62286;50.528;18.284;2022-12-29T09:19:52;98811.81;;;20.04;35.83
73934;BME280;62286;50.528;18.284;2022-12-29T09:22:17;98802.25;;;20.05;35.82
73934;BME280;62286;50.528;18.284;2022-12-29T09:24:43;98796.31;;;20.06;35.80
73934;BME280;62286;50.528;18.284;2022-12-29T09:27:08;98804.22;;;20.08;35.75
73934;BME280;62286;50.528;18.284;2022-12-29T09:29:33;98787.53;;;20.08;35.82
73934;BME280;62286;50.528;18.284;2022-12-29T09:31:58;98792.66;;;20.09;35.71
73934;BME280;62286;50.528;18.284;2022-12-29T09:34:23;98791.09;;;20.08;35.61
73934;BME280;62286;50.528;18.284;2022-12-29T09:36:48;98783.53;;;20.09;35.79
73934;BME280;62286;50.528;18.284;2022-12-29T09:39:13;98787.53;;;20.08;35.72
73934;BME280;62286;50.528;18.284;2022-12-29T09:41:39;98784.31;;;20.09;35.85
73934;BME280;62286;50.528;18.284;2022-12-29T09:44:27;98781.19;;;20.07;35.80
73934;BME280;62286;50.528;18.284;2022-12-29T09:46:55;98768.84;;;20.08;35.68
73934;BME280;62286;50.528;18.284;2022-12-29T09:49:34;98769.63;;;20.09;35.64
73934;BME280;62286;50.528;18.284;2022-12-29T09:52:04;98764.84;;;20.09;35.73
73934;BME280;62286;50.528;18.284;2022-12-29T09:56:56;98735.81;;;20.10;35.60
73934;BME280;62286;50.528;18.284;2022-12-29T09:59:22;98741.38;;;20.10;35.74
73934;BME280;62286;50.528;18.284;2022-12-29T10:01:56;98733.41;;;20.12;35.70
73934;BME280;62286;50.528;18.284;2022-12-29T10:04:25;98748.91;;;20.13;35.72
73934;BME280;62286;50.528;18.284;2022-12-29T10:06:51;98744.13;;;20.14;35.58
73934;BME280;62286;50.528;18.284;2022-12-29T10:17:04;98748.84;;;20.17;35.65
73934;BME280;62286;50.528;18.284;2022-12-29T10:19:50;98750.84;;;20.17;35.44
73934;BME280;62286;50.528;18.284;2022-12-29T10:24:52;98759.53;;;20.19;35.45
73934;BME280;62286;50.528;18.284;2022-12-29T10:27:19;98765.91;;;20.19;35.58
73934;BME280;62286;50.528;18.284;2022-12-29T10:29:48;98764.72;;;20.20;35.57
73934;BME280;62286;50.528;18.284;2022-12-29T10:32:36;98777.41;;;20.21;35.40
73934;BME280;62286;50.528;18.284;2022-12-29T10:35:00;98790.13;;;20.22;35.63
73934;BME280;62286;50.528;18.284;2022-12-29T10:40:02;98769.06;;;20.21;35.55
73934;BME280;62286;50.528;18.284;2022-12-29T10:42:36;98769.84;;;20.22;35.44
73934;BME280;62286;50.528;18.284;2022-12-29T10:45:04;98771.06;;;20.21;35.50
73934;BME280;62286;50.528;18.284;2022-12-29T10:47:32;98767.06;;;20.22;35.43
73934;BME280;62286;50.528;18.284;2022-12-29T10:49:58;98757.16;;;20.21;35.49
73934;BME280;62286;50.528;18.284;2022-12-29T10:52:24;98746.81;;;20.21;35.56
73934;BME280;62286;50.528;18.284;2022-12-29T10:59:50;98744.03;;;20.21;35.51
73934;BME280;62286;50.528;18.284;2022-12-29T11:02:43;98744.81;;;20.22;35.39
73934;BME280;62286;50.528;18.284;2022-12-29T11:07:32;98743.59;;;20.23;35.34
73934;BME280;62286;50.528;18.284;2022-12-29T11:12:41;98746.34;;;20.26;35.34
73934;BME280;62286;50.528;18.284;2022-12-29T11:15:19;98745.13;;;20.27;35.50
73934;BME280;62286;50.528;18.284;2022-12-29T11:17:45;98734.00;;;20.27;35.35
73934;BME280;62286;50.528;18.284;2022-12-29T11:23:09;98743.50;;;20.30;35.26
73934;BME280;62286;50.528;18.284;2022-12-29T11:25:45;98741.06;;;20.32;35.30
73934;BME280;62286;50.528;18.284;2022-12-29T11:28:14;98735.50;;;20.32;35.23
73934;BME280;62286;50.528;18.284;2022-12-29T11:30:39;98746.63;;;20.32;35.31
73934;BME280;62286;50.528;18.284;2022-12-29T11:33:05;98740.66;;;20.33;35.26
73934;BME280;62286;50.528;18.284;2022-12-29T11:35:31;98732.31;;;20.33;35.41
73934;BME280;62286;50.528;18.284;2022-12-29T11:37:58;98734.69;;;20.35;35.40
73934;BME280;62286;50.528;18.284;2022-12-29T11:40:25;98727.09;;;20.35;35.28
73934;BME280;62286;50.528;18.284;2022-12-29T11:42:52;98711.63;;;20.34;35.32
73934;BME280;62286;50.528;18.284;2022-12-29T11:45:19;98709.63;;;20.35;35.24
73934;BME280;62286;50.528;18.284;2022-12-29T11:47:47;98715.19;;;20.35;35.27
73934;BME280;62286;50.528;18.284;2022-12-29T11:50:20;98722.31;;;20.36;35.29
73934;BME280;62286;50.528;18.284;2022-12-29T11:52:46;98719.53;;;20.36;35.30
73934;BME280;62286;50.528;18.284;2022-12-29T11:55:17;98710.41;;;20.35;35.24
73934;BME280;62286;50.528;18.284;2022-12-29T11:57:43;98710.06;;;20.33;35.16
73934;BME280;62286;50.528;18.284;2022-12-29T12:05:08;98704.50;;;20.33;35.23
73934;BME280;62286;50.528;18.284;2022-12-29T12:07:37;98707.28;;;20.33;35.21
73934;BME280;62286;50.528;18.284;2022-12-29T12:10:04;98702.50;;;20.34;35.12
73934;BME280;62286;50.528;18.284;2022-12-29T12:15:17;98706.84;;;20.35;35.22
73934;BME280;62286;50.528;18.284;2022-12-29T12:17:57;98704.84;;;20.35;35.25
73934;BME280;62286;50.528;18.284;2022-12-29T12:30:48;98700.38;;;20.41;35.15
73934;BME280;62286;50.528;18.284;2022-12-29T12:33:16;98684.88;;;20.40;35.25
73934;BME280;62286;50.528;18.284;2022-12-29T12:45:42;98686.00;;;20.47;34.97
73934;BME280;62286;50.528;18.284;2022-12-29T12:50:50;98688.81;;;20.47;35.09
73934;BME280;62286;50.528;18.284;2022-12-29T12:53:36;98682.00;;;20.48;35.11
73934;BME280;62286;50.528;18.284;2022-12-29T13:14:53;98694.38;;;20.47;34.93
73934;BME280;62286;50.528;18.284;2022-12-29T13:20:24;98693.16;;;20.48;35.02
73934;BME280;62286;50.528;18.284;2022-12-29T13:22:59;98688.38;;;20.48;34.87
73934;BME280;62286;50.528;18.284;2022-12-29T13:30:27;98699.06;;;20.50;34.85
73934;BME280;62286;50.528;18.284;2022-12-29T13:37:47;98691.88;;;20.52;34.88
73934;BME280;62286;50.528;18.284;2022-12-29T13:40:16;98697.44;;;20.52;34.83
73934;BME280;62286;50.528;18.284;2022-12-29T13:42:41;98697.44;;;20.52;34.81
73934;BME280;62286;50.528;18.284;2022-12-29T13:45:12;98701.00;;;20.53;34.91
73934;BME280;62286;50.528;18.284;2022-12-29T13:47:39;98698.22;;;20.53;34.92
73934;BME280;62286;50.528;18.284;2022-12-29T13:50:08;98697.81;;;20.54;34.83
73934;BME280;62286;50.528;18.284;2022-12-29T13:52:44;98697.81;;;20.54;34.95
73934;BME280;62286;50.528;18.284;2022-12-29T13:55:31;98699.38;;;20.55;34.77
73934;BME280;62286;50.528;18.284;2022-12-29T14:00:50;98700.16;;;20.56;34.89
73934;BME280;62286;50.528;18.284;2022-12-29T14:06:03;98685.47;;;20.55;34.94
73934;BME280;62286;50.528;18.284;2022-12-29T14:08:29;98704.53;;;20.57;34.75
73934;BME280;62286;50.528;18.284;2022-12-29T14:10:58;98705.31;;;20.57;34.80
73934;BME280;62286;50.528;18.284;2022-12-29T14:13:30;98694.97;;;20.58;34.74
73934;BME280;62286;50.528;18.284;2022-12-29T14:15:56;98697.75;;;20.58;34.93
73934;BME280;62286;50.528;18.284;2022-12-29T14:18:23;98694.97;;;20.58;34.93
73934;BME280;62286;50.528;18.284;2022-12-29T14:23:37;98687.03;;;20.56;34.73
73934;BME280;62286;50.528;18.284;2022-12-29T14:28:36;98678.69;;;20.56;34.68
73934;BME280;62286;50.528;18.284;2022-12-29T14:31:02;98678.25;;;20.58;34.82
73934;BME280;62286;50.528;18.284;2022-12-29T14:33:29;98692.97;;;20.58;34.83
73934;BME280;62286;50.528;18.284;2022-12-29T14:35:54;98696.53;;;20.59;34.69
73934;BME280;62286;50.528;18.284;2022-12-29T14:38:23;98699.31;;;20.59;34.66
73934;BME280;62286;50.528;18.284;2022-12-29T14:40:49;98696.53;;;20.59;34.80
73934;BME280;62286;50.528;18.284;2022-12-29T14:43:19;98701.69;;;20.60;34.75
73934;BME280;62286;50.528;18.284;2022-12-29T14:45:48;98706.47;;;20.60;34.75
73934;BME280;62286;50.528;18.284;2022-12-29T14:48:36;98712.41;;;20.62;34.64
73934;BME280;62286;50.528;18.284;2022-12-29T14:51:02;98693.69;;;20.62;34.71
73934;BME280;62286;50.528;18.284;2022-12-29T14:56:09;98694.47;;;20.63;34.67
73934;BME280;62286;50.528;18.284;2022-12-29T15:01:19;98704.41;;;20.64;34.50
73934;BME280;62286;50.528;18.284;2022-12-29T15:03:46;98698.06;;;20.63;34.57
73934;BME280;62286;50.528;18.284;2022-12-29T15:06:13;98705.19;;;20.64;34.48
73934;BME280;62286;50.528;18.284;2022-12-29T15:08:42;98701.19;;;20.65;34.66
73934;BME280;62286;50.528;18.284;2022-12-29T15:11:13;98697.63;;;20.65;34.64
73934;BME280;62286;50.528;18.284;2022-12-29T15:13:39;98713.91;;;20.66;34.51
73934;BME280;62286;50.528;18.284;2022-12-29T15:16:17;98691.22;;;20.68;34.50
73934;BME280;62286;50.528;18.284;2022-12-29T15:18:45;98708.72;;;20.68;34.40
73934;BME280;62286;50.528;18.284;2022-12-29T15:21:11;98694.00;;;20.68;34.50
73934;BME280;62286;50.528;18.284;2022-12-29T15:23:37;98697.56;;;20.68;34.64